Wheatland, North Dakota
Current Conditions -  °F | °C
As of 10:53 PM on Sunday 19 Oct 2014 (Local Time) from KFAR Reporting Station
Clear Clear  
Wind Chill: 45°   Ceiling: Unl
Heat Index: 48°   Visibility: 10mi
Dew Point: 37°   Wind: 6mph
Humidity: 66%   Direction: 270°W
Pressure: 29.91"   Gusts: NA
Location:  46.91°N, 97.34°W
Report Text: KFAR 200353Z 27005KT 10SM CLR 09/03 A2991 RMK AO2 SLP132 T00890028
Loading
Personal Weather Stations






























Interactive Weather Map
Tropical Storm Tracking
New forecast layout! Learn more

10-Day Weather Forecast

Advertisements
Track Severe Weather on mobile